createdAt,value
2023-05-20T00:07:33.570Z,13.63
2023-05-20T00:17:41.369Z,13.70
2023-05-20T00:27:47.432Z,13.74
2023-05-20T00:37:52.113Z,13.61
2023-05-20T00:48:00.011Z,13.75
2023-05-20T00:58:05.037Z,13.73
2023-05-20T01:08:10.717Z,13.77
2023-05-20T01:18:22.731Z,13.68
2023-05-20T01:28:28.739Z,13.73
2023-05-20T01:38:33.214Z,13.78
2023-05-20T01:48:38.472Z,13.85
2023-05-20T01:58:42.189Z,13.93
2023-05-20T02:08:46.009Z,14.10
2023-05-20T02:18:51.922Z,14.21
2023-05-20T02:28:55.826Z,14.34
2023-05-20T02:39:01.451Z,14.47
2023-05-20T02:49:05.514Z,14.58
2023-05-20T02:59:11.620Z,14.46
2023-05-20T03:09:15.314Z,13.74
2023-05-20T03:19:20.063Z,13.73
2023-05-20T03:29:25.146Z,13.83
2023-05-20T03:39:29.370Z,13.64
2023-05-20T03:49:33.049Z,13.62
2023-05-20T03:59:39.026Z,13.67
2023-05-20T04:09:44.078Z,13.80
2023-05-20T04:19:47.781Z,13.97
2023-05-20T04:29:52.675Z,14.22
2023-05-20T04:39:58.858Z,14.31
2023-05-20T04:50:03.467Z,14.48
2023-05-20T05:00:11.074Z,14.48
2023-05-20T05:10:18.084Z,14.74
2023-05-20T05:20:22.206Z,14.86
2023-05-20T05:30:26.351Z,15.24
2023-05-20T05:40:32.123Z,15.69
2023-05-20T05:50:37.713Z,15.81
2023-05-20T06:00:43.838Z,15.91
2023-05-20T06:10:51.532Z,16.14
2023-05-20T06:20:57.542Z,16.84
2023-05-20T06:31:02.257Z,17.35
2023-05-20T06:41:09.674Z,17.62
2023-05-20T06:51:14.233Z,18.05
2023-05-20T07:01:18.481Z,18.55
2023-05-20T07:11:23.766Z,18.66
2023-05-20T07:21:28.075Z,18.75
2023-05-20T07:31:49.313Z,18.82
2023-05-20T07:41:54.059Z,19.34
2023-05-20T07:51:57.888Z,19.96
2023-05-20T08:02:04.273Z,19.65
2023-05-20T08:12:08.101Z,19.22
2023-05-20T08:22:13.299Z,19.47
2023-05-20T08:32:17.807Z,19.65
2023-05-20T08:42:29.589Z,19.84
2023-05-20T08:52:35.696Z,20.40
2023-05-20T09:02:40.381Z,20.57
2023-05-20T09:12:44.040Z,20.97
2023-05-20T09:22:55.464Z,21.79
2023-05-20T09:33:00.558Z,22.51
2023-05-20T09:43:11.436Z,23.11
2023-05-20T09:53:16.823Z,23.62
2023-05-20T10:03:30.675Z,23.44
2023-05-20T10:13:43.227Z,23.57
2023-05-20T10:23:46.857Z,25.14
2023-05-20T10:33:55.531Z,25.57
2023-05-20T10:44:05.895Z,25.45
2023-05-20T10:54:11.690Z,25.37
2023-05-20T11:04:20.066Z,26.30
2023-05-20T11:14:24.131Z,26.17
2023-05-20T11:24:29.247Z,25.92
2023-05-20T11:34:41.575Z,25.86
2023-05-20T11:44:45.803Z,25.14
2023-05-20T11:54:56.161Z,25.09
2023-05-20T12:04:59.853Z,25.27
2023-05-20T12:15:08.101Z,25.24
2023-05-20T12:25:15.674Z,25.61
2023-05-20T12:35:42.511Z,25.59
2023-05-20T12:45:46.636Z,25.96
2023-05-20T12:55:50.327Z,26.24
2023-05-20T13:05:56.342Z,26.64
2023-05-20T13:16:00.158Z,26.47
2023-05-20T13:26:05.488Z,26.30
2023-05-20T13:36:09.102Z,26.55
2023-05-20T13:46:14.939Z,27.32
2023-05-20T13:56:19.027Z,28.26
2023-05-20T14:06:22.690Z,28.52
2023-05-20T14:16:26.382Z,28.11
2023-05-20T14:26:30.091Z,27.01
2023-05-20T14:36:33.781Z,26.30
2023-05-20T14:46:38.335Z,26.17
2023-05-20T14:56:46.319Z,25.72
2023-05-20T15:06:52.461Z,26.12
2023-05-20T15:16:58.511Z,25.54
2023-05-20T15:27:02.463Z,25.25
2023-05-20T15:37:06.534Z,25.24
2023-05-20T15:47:14.222Z,24.98
2023-05-20T15:57:19.306Z,25.02
2023-05-20T16:07:23.290Z,25.06
2023-05-20T16:17:27.024Z,25.14
2023-05-20T16:27:32.815Z,25.22
2023-05-20T16:37:36.546Z,25.22
2023-05-20T16:47:40.277Z,25.92
2023-05-20T16:57:46.435Z,26.24
2023-05-20T17:07:50.085Z,26.35
2023-05-20T17:17:53.773Z,26.22
2023-05-20T17:27:57.443Z,25.63
2023-05-20T17:38:01.468Z,24.93
2023-05-20T17:48:11.565Z,24.58
2023-05-20T17:58:17.615Z,23.99
2023-05-20T18:08:25.477Z,23.60
2023-05-20T18:18:29.116Z,23.26
2023-05-20T18:28:33.155Z,22.84
2023-05-20T18:38:39.063Z,22.37
2023-05-20T18:48:44.260Z,22.00
2023-05-20T18:58:47.818Z,21.52
2023-05-20T19:08:51.613Z,21.13
2023-05-20T19:18:55.344Z,20.79
2023-05-20T19:28:58.968Z,20.49
2023-05-20T19:39:02.592Z,20.11
2023-05-20T19:49:06.855Z,19.84
2023-05-20T19:59:10.998Z,19.64
2023-05-20T20:09:14.811Z,19.44
2023-05-20T20:19:19.056Z,19.27
2023-05-20T20:29:25.207Z,19.06
2023-05-20T20:39:30.027Z,18.80
2023-05-20T20:49:35.379Z,18.63
2023-05-20T20:59:40.071Z,18.41
2023-05-20T21:09:45.764Z,18.25
2023-05-20T21:19:51.428Z,18.06
2023-05-20T21:29:56.823Z,17.87
2023-05-20T21:40:01.903Z,17.78
2023-05-20T21:50:06.707Z,17.58
2023-05-20T22:00:17.865Z,17.47
2023-05-20T22:10:23.365Z,17.27
2023-05-20T22:20:28.926Z,17.10
2023-05-20T22:30:38.514Z,17.06
2023-05-20T22:40:42.102Z,17.01
2023-05-20T22:50:45.779Z,16.79
2023-05-20T23:00:49.402Z,16.57
2023-05-20T23:10:53.091Z,16.43
2023-05-20T23:20:58.921Z,16.33
2023-05-20T23:31:07.048Z,16.33
2023-05-20T23:41:11.308Z,16.27
2023-05-20T23:51:14.942Z,16.24
